createdAt,value
2022-09-01T00:00:54.947Z,1.70
2022-09-01T00:01:57.123Z,1.40
2022-09-01T00:02:59.275Z,2.05
2022-09-01T00:04:03.763Z,1.70
2022-09-01T00:05:07.780Z,1.10
2022-09-01T00:06:11.733Z,1.42
2022-09-01T00:07:14.558Z,1.08
2022-09-01T00:08:18.562Z,1.65
2022-09-01T00:09:22.804Z,2.25
2022-09-01T00:10:25.274Z,1.47
2022-09-01T00:11:29.110Z,1.27
2022-09-01T00:12:31.160Z,1.42
2022-09-01T00:13:34.059Z,1.65
2022-09-01T00:14:41.548Z,1.48
2022-09-01T00:15:43.783Z,1.30
2022-09-01T00:16:45.664Z,1.60
2022-09-01T00:17:49.985Z,1.55
2022-09-01T00:18:54.285Z,1.30
2022-09-01T00:19:56.272Z,1.40
2022-09-01T00:20:59.574Z,1.30
2022-09-01T00:22:02.339Z,1.75
2022-09-01T00:23:04.191Z,1.45
2022-09-01T00:24:07.079Z,1.48
2022-09-01T00:25:10.225Z,1.38
2022-09-01T00:26:12.504Z,1.40
2022-09-01T00:27:14.600Z,1.38
2022-09-01T00:28:16.596Z,1.50
2022-09-01T00:29:18.588Z,1.50
2022-09-01T00:30:22.191Z,1.58
2022-09-01T00:31:25.294Z,1.40
2022-09-01T00:32:28.763Z,1.40
2022-09-01T00:33:31.105Z,1.35
2022-09-01T00:34:33.078Z,1.85
2022-09-01T00:35:36.805Z,1.40
2022-09-01T00:36:39.599Z,1.70
2022-09-01T00:37:41.687Z,1.27
2022-09-01T00:38:43.880Z,1.30
2022-09-01T00:39:45.765Z,2.10
2022-09-01T00:40:50.079Z,1.73
2022-09-01T00:41:52.135Z,2.20
2022-09-01T00:42:54.153Z,1.70
2022-09-01T00:44:02.182Z,1.20
2022-09-01T00:45:06.029Z,1.52
2022-09-01T00:46:28.942Z,1.77
2022-09-01T00:47:31.115Z,1.73
2022-09-01T00:48:33.592Z,1.42
2022-09-01T00:49:48.622Z,1.73
2022-09-01T00:50:50.994Z,1.60
2022-09-01T00:52:05.450Z,1.95
2022-09-01T00:53:08.549Z,1.53
2022-09-01T00:54:14.033Z,2.03
2022-09-01T00:55:21.720Z,1.30
2022-09-01T00:56:24.290Z,1.45
2022-09-01T00:57:27.642Z,1.40
2022-09-01T00:58:31.004Z,1.48
2022-09-01T00:59:33.076Z,1.50
2022-09-01T01:00:41.774Z,2.03
2022-09-01T01:01:44.532Z,1.83
2022-09-01T01:02:48.998Z,1.63
2022-09-01T01:03:50.994Z,1.80
2022-09-01T01:04:53.354Z,1.50
2022-09-01T01:05:58.147Z,1.50
2022-09-01T01:07:04.347Z,1.75
2022-09-01T01:08:09.704Z,2.00
2022-09-01T01:09:12.708Z,1.88
2022-09-01T01:10:18.414Z,1.95
2022-09-01T01:11:20.389Z,1.70
2022-09-01T01:12:23.761Z,1.92
2022-09-01T01:13:26.150Z,2.03
2022-09-01T01:14:32.094Z,1.30
2022-09-01T01:15:34.177Z,1.50
2022-09-01T01:16:37.308Z,1.40
2022-09-01T01:17:39.682Z,1.83
2022-09-01T01:18:42.370Z,1.50
2022-09-01T01:20:06.930Z,1.90
2022-09-01T01:21:36.272Z,2.10
2022-09-01T01:23:03.101Z,1.95
2022-09-01T01:24:27.526Z,1.58
2022-09-01T01:25:30.584Z,1.83
2022-09-01T01:26:32.758Z,1.70
2022-09-01T01:27:42.961Z,1.75
2022-09-01T01:28:45.357Z,1.40
2022-09-01T01:29:47.779Z,1.88
2022-09-01T01:30:54.409Z,1.50
2022-09-01T01:31:57.737Z,2.05
2022-09-01T01:33:00.997Z,1.83
2022-09-01T01:34:08.189Z,1.65
2022-09-01T01:35:14.829Z,2.20
2022-09-01T01:36:19.333Z,1.90
2022-09-01T01:37:23.286Z,1.83
2022-09-01T01:38:26.625Z,1.27
2022-09-01T01:39:29.204Z,1.40
2022-09-01T01:40:31.499Z,1.50
2022-09-01T01:41:35.842Z,1.60
2022-09-01T01:42:38.870Z,1.90
2022-09-01T01:43:42.004Z,1.85
2022-09-01T01:44:44.325Z,1.70
2022-09-01T01:45:52.297Z,1.48
2022-09-01T01:46:57.495Z,2.08
2022-09-01T01:48:08.751Z,1.53
2022-09-01T01:49:19.654Z,1.75
2022-09-01T01:50:33.675Z,1.80
2022-09-01T01:51:36.075Z,1.90
2022-09-01T01:52:38.203Z,1.65
2022-09-01T01:53:47.966Z,1.52
2022-09-01T01:54:49.999Z,1.77
2022-09-01T01:55:52.338Z,1.90
2022-09-01T01:56:57.520Z,1.45
2022-09-01T01:58:01.217Z,2.25
2022-09-01T01:59:03.790Z,2.17
2022-09-01T02:00:11.226Z,1.73
2022-09-01T02:01:14.406Z,1.80
2022-09-01T02:02:16.384Z,1.90
2022-09-01T02:03:22.059Z,1.85
2022-09-01T02:04:26.253Z,1.70
2022-09-01T02:05:35.599Z,1.85
2022-09-01T02:06:41.393Z,2.05
2022-09-01T02:07:43.600Z,2.08
2022-09-01T02:08:45.851Z,1.80
2022-09-01T02:09:48.399Z,1.90
2022-09-01T02:10:53.626Z,1.98
2022-09-01T02:11:57.509Z,1.65
2022-09-01T02:13:06.097Z,1.50
2022-09-01T02:14:09.591Z,2.33
2022-09-01T02:15:13.139Z,1.95
2022-09-01T02:16:17.035Z,2.15
2022-09-01T02:17:20.141Z,1.85
2022-09-01T02:18:28.065Z,1.88
2022-09-01T02:19:43.350Z,2.10
2022-09-01T02:20:50.976Z,2.07
2022-09-01T02:21:56.210Z,2.45
2022-09-01T02:22:58.366Z,1.77
2022-09-01T02:24:03.859Z,2.10
2022-09-01T02:25:06.955Z,2.10
2022-09-01T02:26:16.441Z,1.92
2022-09-01T02:27:26.049Z,2.00
2022-09-01T02:28:32.259Z,1.98
2022-09-01T02:29:40.255Z,2.22
2022-09-01T02:30:49.406Z,2.25
2022-09-01T02:31:54.390Z,2.20
2022-09-01T02:32:58.508Z,2.88
2022-09-01T02:34:01.952Z,2.30
2022-09-01T02:35:07.397Z,2.10
2022-09-01T02:36:14.374Z,2.42
2022-09-01T02:37:16.489Z,2.40
2022-09-01T02:38:21.143Z,2.10
2022-09-01T02:39:28.212Z,2.55
2022-09-01T02:40:30.554Z,2.40
2022-09-01T02:41:34.681Z,2.47
2022-09-01T02:42:41.141Z,1.70
2022-09-01T02:43:46.506Z,1.98
2022-09-01T02:44:48.352Z,2.10
2022-09-01T02:45:54.473Z,2.65
2022-09-01T02:46:58.564Z,2.47
2022-09-01T02:48:01.086Z,2.08
2022-09-01T02:49:05.563Z,2.65
2022-09-01T02:50:13.871Z,2.08
2022-09-01T02:51:18.363Z,2.00
2022-09-01T02:52:20.756Z,2.50
2022-09-01T02:53:23.206Z,2.00
2022-09-01T02:54:25.736Z,2.20
2022-09-01T02:55:28.110Z,2.13
2022-09-01T02:56:30.023Z,2.60
2022-09-01T02:57:34.585Z,2.28
2022-09-01T02:58:45.983Z,2.10
2022-09-01T02:59:48.639Z,2.10
2022-09-01T03:00:55.916Z,2.38
2022-09-01T03:01:58.472Z,2.13
2022-09-01T03:03:02.348Z,2.28
2022-09-01T03:04:06.208Z,2.30
2022-09-01T03:05:08.539Z,2.28
2022-09-01T03:06:12.910Z,1.98
2022-09-01T03:07:18.353Z,1.88
2022-09-01T03:08:21.078Z,1.80
2022-09-01T03:09:23.148Z,2.00
2022-09-01T03:10:32.243Z,2.35
2022-09-01T03:11:37.752Z,2.20
2022-09-01T03:12:39.727Z,2.00
2022-09-01T03:13:42.498Z,2.10
2022-09-01T03:14:44.549Z,2.07
2022-09-01T03:15:47.653Z,2.05
2022-09-01T03:16:49.865Z,2.33
2022-09-01T03:17:52.128Z,2.30
2022-09-01T03:18:54.001Z,2.20
2022-09-01T03:19:56.095Z,2.50
2022-09-01T03:20:58.674Z,2.55
2022-09-01T03:22:00.672Z,2.20
2022-09-01T03:23:08.741Z,2.13
2022-09-01T03:24:15.253Z,2.28
2022-09-01T03:25:18.805Z,2.10
2022-09-01T03:26:24.327Z,2.70
2022-09-01T03:27:26.316Z,2.10
2022-09-01T03:28:29.207Z,2.40
2022-09-01T03:29:31.238Z,2.63
2022-09-01T03:30:34.833Z,2.33
2022-09-01T03:31:37.532Z,2.30
2022-09-01T03:32:42.104Z,1.80
2022-09-01T03:33:44.352Z,2.17
2022-09-01T03:34:57.267Z,2.20
2022-09-01T03:36:00.526Z,2.20
2022-09-01T03:37:06.031Z,2.35
2022-09-01T03:38:09.396Z,2.25
2022-09-01T03:39:14.698Z,2.15
2022-09-01T03:40:19.911Z,2.45
2022-09-01T03:41:26.298Z,2.35
2022-09-01T03:42:31.098Z,2.25
2022-09-01T03:43:35.759Z,2.10
2022-09-01T03:44:40.365Z,2.00
2022-09-01T03:45:43.462Z,2.35
2022-09-01T03:46:45.782Z,2.37
2022-09-01T03:47:47.900Z,3.03
2022-09-01T03:48:58.700Z,2.17
2022-09-01T03:50:02.066Z,2.65
2022-09-01T03:51:04.795Z,2.50
2022-09-01T03:52:09.096Z,2.63
2022-09-01T03:53:12.783Z,2.20
2022-09-01T03:54:14.666Z,2.33
2022-09-01T03:55:23.256Z,2.55
2022-09-01T03:56:28.955Z,2.58
2022-09-01T03:57:32.476Z,2.30
2022-09-01T03:58:35.510Z,2.40
2022-09-01T03:59:44.097Z,1.95
2022-09-01T04:00:51.840Z,2.33
2022-09-01T04:01:54.674Z,2.40
2022-09-01T04:02:59.223Z,2.25
2022-09-01T04:04:02.480Z,2.38
2022-09-01T04:05:08.528Z,1.90
2022-09-01T04:06:10.684Z,2.45
2022-09-01T04:07:19.107Z,2.60
2022-09-01T04:08:27.497Z,2.30
2022-09-01T04:09:35.422Z,2.60
2022-09-01T04:10:52.615Z,2.25
2022-09-01T04:11:56.510Z,2.63
2022-09-01T04:13:00.845Z,2.30
2022-09-01T04:14:02.933Z,2.50
2022-09-01T04:15:08.937Z,2.50
2022-09-01T04:16:41.490Z,2.38
2022-09-01T04:18:03.700Z,2.67
2022-09-01T04:19:16.200Z,2.25
2022-09-01T04:20:20.966Z,2.20
2022-09-01T04:21:23.501Z,2.30
2022-09-01T04:22:32.125Z,2.70
2022-09-01T04:23:36.790Z,2.22
2022-09-01T04:24:45.189Z,2.53
2022-09-01T04:25:54.161Z,2.83
2022-09-01T04:26:58.800Z,2.47
2022-09-01T04:28:06.842Z,2.03
2022-09-01T04:29:12.448Z,2.50
2022-09-01T04:30:15.024Z,2.42
2022-09-01T04:31:22.676Z,2.47
2022-09-01T04:32:28.143Z,2.40
2022-09-01T04:33:38.969Z,2.40
2022-09-01T04:34:42.602Z,2.70
2022-09-01T04:35:47.405Z,2.60
2022-09-01T04:36:54.640Z,2.25
2022-09-01T04:37:58.288Z,2.67
2022-09-01T04:39:02.110Z,2.78
2022-09-01T04:40:04.909Z,2.28
2022-09-01T04:41:07.657Z,2.47
2022-09-01T04:42:10.562Z,2.40
2022-09-01T04:43:12.478Z,2.60
2022-09-01T04:44:18.955Z,2.90
2022-09-01T04:45:25.195Z,3.20
2022-09-01T04:46:29.538Z,2.75
2022-09-01T04:47:35.613Z,2.50
2022-09-01T04:48:46.037Z,2.40
2022-09-01T04:49:49.060Z,3.35
2022-09-01T04:50:52.453Z,2.65
2022-09-01T04:52:01.098Z,2.70
2022-09-01T04:53:06.785Z,2.53
2022-09-01T04:54:17.967Z,2.65
2022-09-01T04:55:21.439Z,2.15
2022-09-01T04:56:25.179Z,2.50
2022-09-01T04:57:47.365Z,2.45
2022-09-01T04:58:50.391Z,2.70
2022-09-01T04:59:53.095Z,2.90
2022-09-01T05:00:56.181Z,2.85
2022-09-01T05:02:00.852Z,3.00
2022-09-01T05:03:04.934Z,2.67
2022-09-01T05:04:46.504Z,2.23
2022-09-01T05:05:48.745Z,2.60
2022-09-01T05:06:56.007Z,2.65
2022-09-01T05:07:58.167Z,3.30
2022-09-01T05:08:59.999Z,2.88
2022-09-01T05:10:14.753Z,2.80
2022-09-01T05:11:37.764Z,2.35
2022-09-01T05:12:46.318Z,3.20
2022-09-01T05:13:50.036Z,2.35
2022-09-01T05:14:52.392Z,3.08
2022-09-01T05:16:06.386Z,2.77
2022-09-01T05:17:10.820Z,3.10
2022-09-01T05:18:14.285Z,2.40
2022-09-01T05:19:17.599Z,2.42
2022-09-01T05:20:21.727Z,2.47
2022-09-01T05:21:26.509Z,2.15
2022-09-01T05:22:29.028Z,2.35
2022-09-01T05:23:40.580Z,2.97
2022-09-01T05:24:44.014Z,3.15
2022-09-01T05:25:51.218Z,2.88
2022-09-01T05:26:53.263Z,2.53
2022-09-01T05:27:57.453Z,3.30
2022-09-01T05:29:02.062Z,2.40
2022-09-01T05:30:08.527Z,2.80
2022-09-01T05:31:11.007Z,3.03
2022-09-01T05:32:13.269Z,2.67
2022-09-01T05:33:21.145Z,2.40
2022-09-01T05:34:29.799Z,2.60
2022-09-01T05:35:34.763Z,3.28
2022-09-01T05:36:41.946Z,3.00
2022-09-01T05:37:43.958Z,2.60
2022-09-01T05:38:49.076Z,2.33
2022-09-01T05:39:52.581Z,2.50
2022-09-01T05:41:07.193Z,2.47
2022-09-01T05:42:09.379Z,2.95
2022-09-01T05:43:14.849Z,2.90
2022-09-01T05:44:18.399Z,2.40
2022-09-01T05:45:23.728Z,2.60
2022-09-01T05:46:28.184Z,2.88
2022-09-01T05:47:33.248Z,2.58
2022-09-01T05:48:40.247Z,2.30
2022-09-01T05:49:44.348Z,2.22
2022-09-01T05:50:46.940Z,2.65
2022-09-01T05:51:52.370Z,2.40
2022-09-01T05:52:56.127Z,2.22
2022-09-01T05:54:02.166Z,2.35
2022-09-01T05:55:09.351Z,2.60
2022-09-01T05:56:15.171Z,2.45
2022-09-01T05:57:33.690Z,2.42
2022-09-01T05:59:59.516Z,2.03
2022-09-01T06:01:03.314Z,2.40
2022-09-01T06:02:08.944Z,1.90
2022-09-01T06:03:12.058Z,2.63
2022-09-01T06:04:17.375Z,2.30
2022-09-01T06:05:20.944Z,2.50
2022-09-01T06:06:28.172Z,3.03
2022-09-01T06:07:30.311Z,2.47
2022-09-01T06:08:36.277Z,2.72
2022-09-01T06:09:41.539Z,2.58
2022-09-01T06:10:43.514Z,2.43
2022-09-01T06:11:46.947Z,2.63
2022-09-01T06:12:51.064Z,2.60
2022-09-01T06:13:58.889Z,2.50
2022-09-01T06:15:01.336Z,2.20
2022-09-01T06:16:03.801Z,2.20
2022-09-01T06:17:11.696Z,2.08
2022-09-01T06:18:14.479Z,2.88
2022-09-01T06:19:25.492Z,2.70
2022-09-01T06:20:27.565Z,2.90
2022-09-01T06:21:29.476Z,2.17
2022-09-01T06:22:34.640Z,1.85
2022-09-01T06:23:36.448Z,2.15
2022-09-01T06:24:40.039Z,2.70
2022-09-01T06:25:46.114Z,2.88
2022-09-01T06:26:50.122Z,2.33
2022-09-01T06:27:52.485Z,2.45
2022-09-01T06:29:01.397Z,2.70
2022-09-01T06:30:04.863Z,2.30
2022-09-01T06:31:12.291Z,2.42
2022-09-01T06:32:14.278Z,2.80
2022-09-01T06:33:17.171Z,2.85
2022-09-01T06:34:22.637Z,2.13
2022-09-01T06:35:29.457Z,2.03
2022-09-01T06:36:37.509Z,2.13
2022-09-01T06:37:40.328Z,2.10
2022-09-01T06:38:45.084Z,2.30
2022-09-01T06:39:47.561Z,2.22
2022-09-01T06:40:51.124Z,2.33
2022-09-01T06:41:58.164Z,2.50
2022-09-01T06:43:08.859Z,2.13
2022-09-01T06:44:14.734Z,2.20
2022-09-01T06:45:24.556Z,2.00
2022-09-01T06:46:29.757Z,2.40
2022-09-01T06:47:36.819Z,2.08
2022-09-01T06:48:46.437Z,2.47
2022-09-01T06:49:48.444Z,2.22
2022-09-01T06:52:16.267Z,1.80
2022-09-01T06:53:35.245Z,2.45
2022-09-01T06:54:44.083Z,2.23
2022-09-01T06:55:49.620Z,1.98
2022-09-01T06:56:53.456Z,2.50
2022-09-01T06:58:05.833Z,2.72
2022-09-01T06:59:08.646Z,2.33
2022-09-01T07:00:20.958Z,2.33
2022-09-01T07:01:26.261Z,1.63
2022-09-01T07:02:31.875Z,1.90
2022-09-01T07:04:12.894Z,1.88
2022-09-01T07:07:00.457Z,1.63
2022-09-01T07:08:07.372Z,2.00
2022-09-01T07:09:47.401Z,1.77
2022-09-01T07:14:15.203Z,2.20
2022-09-01T07:16:33.874Z,1.73
2022-09-01T07:17:42.316Z,1.83
2022-09-01T07:18:57.963Z,1.90
2022-09-01T07:20:23.236Z,1.50
2022-09-01T07:21:40.781Z,2.00
2022-09-01T07:24:10.390Z,1.75
2022-09-01T07:25:13.563Z,1.75
2022-09-01T07:26:26.450Z,1.77
2022-09-01T07:27:51.188Z,1.20
2022-09-01T07:29:01.146Z,1.80
2022-09-01T07:30:03.866Z,1.60
2022-09-01T07:32:47.981Z,1.53
2022-09-01T07:35:18.474Z,1.90
2022-09-01T07:36:28.930Z,1.70
2022-09-01T07:42:59.522Z,1.10
2022-09-01T07:44:15.813Z,1.40
2022-09-01T07:45:59.766Z,1.60
2022-09-01T07:47:51.798Z,1.50
2022-09-01T07:50:12.558Z,1.60
2022-09-01T07:52:42.433Z,1.33
2022-09-01T07:53:48.552Z,1.30
2022-09-01T07:54:50.421Z,1.45
2022-09-01T07:55:54.502Z,1.52
2022-09-01T07:56:56.582Z,1.25
2022-09-01T07:57:59.937Z,1.42
2022-09-01T07:59:02.523Z,1.00
2022-09-01T08:00:06.549Z,1.40
2022-09-01T08:01:24.257Z,1.25
2022-09-01T08:02:28.136Z,1.48
2022-09-01T08:03:30.766Z,1.27
2022-09-01T08:04:34.774Z,1.40
2022-09-01T08:05:38.287Z,1.10
2022-09-01T08:06:40.942Z,1.30
2022-09-01T08:07:54.596Z,1.65
2022-09-01T08:09:02.309Z,1.30
2022-09-01T08:10:08.697Z,1.10
2022-09-01T08:11:40.037Z,1.58
2022-09-01T08:12:56.399Z,1.33
2022-09-01T08:13:59.462Z,1.35
2022-09-01T08:15:13.905Z,1.65
2022-09-01T08:16:39.445Z,1.23
2022-09-01T08:17:52.123Z,1.08
2022-09-01T08:18:55.985Z,1.25
2022-09-01T08:20:24.614Z,1.50
2022-09-01T08:21:45.028Z,1.70
2022-09-01T08:23:08.835Z,1.40
2022-09-01T08:24:12.863Z,1.92
2022-09-01T08:25:16.174Z,1.33
2022-09-01T08:26:20.798Z,1.23
2022-09-01T08:27:22.828Z,1.38
2022-09-01T08:28:27.754Z,1.35
2022-09-01T08:29:31.404Z,1.13
2022-09-01T08:30:37.971Z,1.55
2022-09-01T08:31:39.913Z,1.00
2022-09-01T08:32:44.625Z,1.48
2022-09-01T08:33:49.277Z,0.93
2022-09-01T08:34:51.136Z,1.25
2022-09-01T08:35:55.501Z,1.30
2022-09-01T08:36:57.994Z,1.17
2022-09-01T08:37:59.868Z,1.52
2022-09-01T08:39:02.026Z,0.93
2022-09-01T08:40:06.698Z,1.20
2022-09-01T08:41:22.531Z,1.30
2022-09-01T08:43:13.198Z,1.52
2022-09-01T08:44:22.493Z,1.30
2022-09-01T08:45:37.759Z,1.20
2022-09-01T08:46:43.017Z,1.17
2022-09-01T08:48:20.305Z,1.20
2022-09-01T08:49:25.798Z,1.00
2022-09-01T08:51:07.133Z,1.13
2022-09-01T08:52:36.143Z,1.33
2022-09-01T08:53:47.610Z,1.00
2022-09-01T08:55:05.652Z,1.27
2022-09-01T08:56:11.349Z,1.63
2022-09-01T08:57:31.376Z,1.20
2022-09-01T08:58:54.180Z,1.63
2022-09-01T09:00:45.960Z,1.50
2022-09-01T09:02:21.446Z,2.33
2022-09-01T09:03:49.467Z,1.80
2022-09-01T09:05:22.990Z,1.40
2022-09-01T09:06:54.935Z,1.30
2022-09-01T09:08:33.555Z,1.00
2022-09-01T09:09:54.084Z,1.67
2022-09-01T09:11:06.548Z,1.65
2022-09-01T09:12:32.530Z,1.30
2022-09-01T09:14:06.834Z,1.67
2022-09-01T09:15:15.237Z,1.20
2022-09-01T09:16:23.555Z,1.35
2022-09-01T09:17:31.866Z,1.30
2022-09-01T09:18:56.004Z,1.25
2022-09-01T09:20:00.480Z,1.30
2022-09-01T09:21:29.964Z,0.90
2022-09-01T09:22:33.189Z,1.10
2022-09-01T09:23:41.346Z,1.52
2022-09-01T09:25:17.530Z,1.23
2022-09-01T09:26:22.260Z,1.33
2022-09-01T09:27:28.655Z,1.03
2022-09-01T09:28:30.700Z,1.35
2022-09-01T09:29:32.485Z,1.35
2022-09-01T09:30:34.363Z,1.70
2022-09-01T09:31:43.693Z,1.15
2022-09-01T09:34:33.032Z,1.08
2022-09-01T09:35:46.258Z,1.42
2022-09-01T09:36:54.587Z,1.23
2022-09-01T09:38:28.963Z,1.10
2022-09-01T09:39:31.092Z,1.70
2022-09-01T09:40:47.882Z,1.30
2022-09-01T09:42:21.431Z,1.10
2022-09-01T09:43:25.539Z,1.27
2022-09-01T09:44:33.006Z,1.25
2022-09-01T09:45:42.036Z,1.45
2022-09-01T09:46:47.718Z,1.50
2022-09-01T09:47:49.661Z,1.45
2022-09-01T09:49:10.243Z,2.08
2022-09-01T09:50:30.990Z,1.38
2022-09-01T09:51:33.383Z,1.57
2022-09-01T09:52:35.432Z,1.10
2022-09-01T09:53:37.533Z,1.60
2022-09-01T09:54:51.151Z,1.50
2022-09-01T09:56:16.516Z,1.27
2022-09-01T09:57:18.666Z,1.20
2022-09-01T09:58:26.650Z,1.20
2022-09-01T09:59:54.103Z,1.10
2022-09-01T10:01:05.133Z,1.52
2022-09-01T10:02:28.435Z,1.30
2022-09-01T10:03:45.919Z,1.20
2022-09-01T10:04:50.519Z,1.40
2022-09-01T10:05:57.036Z,1.55
2022-09-01T10:06:59.536Z,1.63
2022-09-01T10:08:02.312Z,1.90
2022-09-01T10:09:08.102Z,1.52
2022-09-01T10:10:26.636Z,1.70
2022-09-01T10:11:40.876Z,1.40
2022-09-01T10:12:43.673Z,1.77
2022-09-01T10:13:45.815Z,1.20
2022-09-01T10:14:56.325Z,1.60
2022-09-01T10:16:02.030Z,1.67
2022-09-01T10:17:16.140Z,1.48
2022-09-01T10:18:28.339Z,1.27
2022-09-01T10:19:35.751Z,1.50
2022-09-01T10:20:39.635Z,1.60
2022-09-01T10:21:46.357Z,1.20
2022-09-01T10:22:50.700Z,1.75
2022-09-01T10:23:53.697Z,1.40
2022-09-01T10:24:56.727Z,1.58
2022-09-01T10:26:09.556Z,1.70
2022-09-01T10:27:23.342Z,1.52
2022-09-01T10:28:26.596Z,1.80
2022-09-01T10:29:35.164Z,1.92
2022-09-01T10:30:46.223Z,1.55
2022-09-01T10:31:48.320Z,1.70
2022-09-01T10:33:01.515Z,1.85
2022-09-01T10:34:19.112Z,1.50
2022-09-01T10:35:31.659Z,1.45
2022-09-01T10:36:37.484Z,1.55
2022-09-01T10:37:41.418Z,1.90
2022-09-01T10:38:46.867Z,1.70
2022-09-01T10:40:30.423Z,2.00
2022-09-01T10:42:09.362Z,1.80
2022-09-01T10:43:41.117Z,2.10
2022-09-01T10:45:01.952Z,2.10
2022-09-01T10:46:16.259Z,2.00
2022-09-01T10:47:37.938Z,2.20
2022-09-01T10:48:55.340Z,2.13
2022-09-01T10:49:59.674Z,1.92
2022-09-01T10:51:19.344Z,2.60
2022-09-01T10:52:41.262Z,2.30
2022-09-01T10:54:01.854Z,2.22
2022-09-01T10:55:06.571Z,2.80
2022-09-01T10:56:29.414Z,2.10
2022-09-01T10:57:55.194Z,2.10
2022-09-01T11:00:41.467Z,2.50
2022-09-01T11:01:48.982Z,2.40
2022-09-01T11:03:30.579Z,2.42
2022-09-01T11:04:33.668Z,2.43
2022-09-01T11:06:11.003Z,2.20
2022-09-01T11:07:44.394Z,2.33
2022-09-01T11:08:50.887Z,2.30
2022-09-01T11:10:35.861Z,2.20
2022-09-01T11:11:45.163Z,2.10
2022-09-01T11:13:18.636Z,2.50
2022-09-01T11:14:23.638Z,2.30
2022-09-01T11:15:45.595Z,2.35
2022-09-01T11:17:19.249Z,2.30
2022-09-01T11:18:29.569Z,2.30
2022-09-01T11:19:34.630Z,2.00
2022-09-01T11:20:39.522Z,2.50
2022-09-01T11:21:42.138Z,2.28
2022-09-01T11:22:46.627Z,2.45
2022-09-01T11:23:48.931Z,2.40
2022-09-01T11:25:14.054Z,2.65
2022-09-01T11:26:34.945Z,2.25
2022-09-01T11:27:48.794Z,2.40
2022-09-01T11:28:50.689Z,2.33
2022-09-01T11:29:59.095Z,1.77
2022-09-01T11:31:35.500Z,2.10
2022-09-01T11:32:39.611Z,2.03
2022-09-01T11:33:47.884Z,2.20
2022-09-01T11:34:52.580Z,2.58
2022-09-01T11:36:04.939Z,1.90
2022-09-01T11:37:15.265Z,2.22
2022-09-01T11:38:19.682Z,2.30
2022-09-01T11:39:33.184Z,2.30
2022-09-01T11:40:36.714Z,1.80
2022-09-01T11:41:54.458Z,1.60
2022-09-01T11:43:01.921Z,1.70
2022-09-01T11:44:14.322Z,1.50
2022-09-01T11:45:27.048Z,1.45
2022-09-01T11:46:32.940Z,1.80
2022-09-01T11:47:40.011Z,1.45
2022-09-01T11:48:51.861Z,1.40
2022-09-01T11:50:17.086Z,1.60
2022-09-01T11:51:21.410Z,1.40
2022-09-01T11:52:27.104Z,1.73
2022-09-01T11:53:29.764Z,1.23
2022-09-01T11:54:41.355Z,1.40
2022-09-01T11:55:49.366Z,1.30
2022-09-01T11:56:51.509Z,1.20
2022-09-01T11:57:53.903Z,1.10
2022-09-01T11:58:55.809Z,1.20
2022-09-01T11:59:59.991Z,1.25
2022-09-01T12:01:20.762Z,1.10
2022-09-01T12:02:32.015Z,1.25
2022-09-01T12:03:37.128Z,1.20
2022-09-01T12:04:40.740Z,1.30
2022-09-01T12:05:42.658Z,2.15
2022-09-01T12:07:12.423Z,1.23
2022-09-01T12:08:24.173Z,1.33
2022-09-01T12:09:35.824Z,1.42
2022-09-01T12:10:40.246Z,1.30
2022-09-01T12:11:42.476Z,1.20
2022-09-01T12:12:44.523Z,1.00
2022-09-01T12:14:20.991Z,0.95
2022-09-01T12:15:25.981Z,1.00
2022-09-01T12:16:30.234Z,1.60
2022-09-01T12:17:32.306Z,1.42
2022-09-01T12:18:39.936Z,1.00
2022-09-01T12:19:42.083Z,1.35
2022-09-01T12:20:44.001Z,1.10
2022-09-01T12:21:58.976Z,1.00
2022-09-01T12:23:02.490Z,1.10
2022-09-01T12:24:23.535Z,1.33
2022-09-01T12:25:29.642Z,1.10
2022-09-01T12:26:32.735Z,1.07
2022-09-01T12:27:37.074Z,0.80
2022-09-01T12:28:41.589Z,1.13
2022-09-01T12:29:44.230Z,1.23
2022-09-01T12:30:46.353Z,1.10
2022-09-01T12:31:50.476Z,1.55
2022-09-01T12:33:22.818Z,1.00
2022-09-01T12:34:49.150Z,1.00
2022-09-01T12:35:51.129Z,1.20
2022-09-01T12:37:23.557Z,1.10
2022-09-01T12:38:28.966Z,1.00
2022-09-01T12:39:48.774Z,1.20
2022-09-01T12:40:56.037Z,1.13
2022-09-01T12:42:07.301Z,1.20
2022-09-01T12:43:10.012Z,1.30
2022-09-01T12:44:38.096Z,1.35
2022-09-01T12:45:47.321Z,1.20
2022-09-01T12:46:49.842Z,1.08
2022-09-01T12:47:52.731Z,1.17
2022-09-01T12:48:55.497Z,1.30
2022-09-01T12:49:57.994Z,1.30
2022-09-01T12:51:26.643Z,1.23
2022-09-01T12:52:34.622Z,1.13
2022-09-01T12:53:37.222Z,1.20
2022-09-01T12:54:39.943Z,1.58
2022-09-01T12:55:56.455Z,1.50
2022-09-01T12:56:58.882Z,1.10
2022-09-01T12:58:07.122Z,1.17
2022-09-01T12:59:36.255Z,1.30
2022-09-01T13:01:26.257Z,1.42
2022-09-01T13:02:37.000Z,0.87
2022-09-01T13:03:39.068Z,1.27
2022-09-01T13:04:41.727Z,1.00
2022-09-01T13:05:47.128Z,1.77
2022-09-01T13:06:50.114Z,1.42
2022-09-01T13:07:57.525Z,1.40
2022-09-01T13:08:59.687Z,0.90
2022-09-01T13:10:01.640Z,1.30
2022-09-01T13:11:14.208Z,1.52
2022-09-01T13:12:21.447Z,1.58
2022-09-01T13:13:24.977Z,1.30
2022-09-01T13:14:26.775Z,1.60
2022-09-01T13:15:28.799Z,1.00
2022-09-01T13:16:30.870Z,1.20
2022-09-01T13:17:32.740Z,1.48
2022-09-01T13:19:10.596Z,1.63
2022-09-01T13:19:56.536Z,1.30
2022-09-01T13:20:59.055Z,1.30
2022-09-01T13:22:01.134Z,1.20
2022-09-01T13:23:02.983Z,2.42
2022-09-01T13:24:07.233Z,1.17
2022-09-01T13:25:10.869Z,1.52
2022-09-01T13:26:12.912Z,0.90
2022-09-01T13:27:22.768Z,0.95
2022-09-01T13:29:29.229Z,1.05
2022-09-01T13:30:31.441Z,1.52
2022-09-01T13:31:34.439Z,1.13
2022-09-01T13:33:17.848Z,1.17
2022-09-01T13:34:20.596Z,1.40
2022-09-01T13:35:24.197Z,1.50
2022-09-01T13:37:49.422Z,1.73
2022-09-01T13:38:51.466Z,0.90
2022-09-01T13:39:57.592Z,1.50
2022-09-01T13:41:01.799Z,1.00
2022-09-01T13:42:03.723Z,1.10
2022-09-01T13:43:06.264Z,1.23
2022-09-01T13:44:09.976Z,1.10
2022-09-01T13:45:13.495Z,1.13
2022-09-01T13:46:15.354Z,1.20
2022-09-01T13:48:15.243Z,1.00
2022-09-01T13:50:07.688Z,1.20
2022-09-01T13:51:16.960Z,1.20
2022-09-01T13:52:21.657Z,1.00
2022-09-01T13:53:23.582Z,0.98
2022-09-01T13:54:25.516Z,1.08
2022-09-01T13:55:30.868Z,1.30
2022-09-01T13:56:32.762Z,1.42
2022-09-01T13:57:35.720Z,1.10
2022-09-01T13:58:38.496Z,1.40
2022-09-01T13:59:42.046Z,1.08
2022-09-01T14:00:46.863Z,1.15
2022-09-01T14:01:48.828Z,1.00
2022-09-01T14:02:54.154Z,1.20
2022-09-01T14:04:00.248Z,1.10
2022-09-01T14:05:02.935Z,1.20
2022-09-01T14:06:08.067Z,1.30
2022-09-01T14:07:10.096Z,1.48
2022-09-01T14:08:13.720Z,1.20
2022-09-01T14:09:17.710Z,1.10
2022-09-01T14:10:23.749Z,1.00
2022-09-01T14:11:26.640Z,1.10
2022-09-01T14:12:29.986Z,1.30
2022-09-01T14:13:32.885Z,1.10
2022-09-01T14:15:57.049Z,0.90
2022-09-01T14:16:59.045Z,1.40
2022-09-01T14:18:01.376Z,1.00
2022-09-01T14:19:03.973Z,1.20
2022-09-01T14:20:13.508Z,1.20
2022-09-01T14:21:16.988Z,1.08
2022-09-01T14:22:19.386Z,1.30
2022-09-01T14:23:21.388Z,0.90
2022-09-01T14:24:26.391Z,1.10
2022-09-01T14:25:28.971Z,0.98
2022-09-01T14:26:30.967Z,1.20
2022-09-01T14:27:33.117Z,1.30
2022-09-01T14:28:35.055Z,1.02
2022-09-01T14:30:41.203Z,1.20
2022-09-01T14:31:45.075Z,1.40
2022-09-01T14:32:47.539Z,1.10
2022-09-01T14:33:49.878Z,1.25
2022-09-01T14:34:51.683Z,1.33
2022-09-01T14:35:54.315Z,1.20
2022-09-01T14:36:57.280Z,1.40
2022-09-01T14:37:59.641Z,1.30
2022-09-01T14:39:01.775Z,1.67
2022-09-01T14:40:06.485Z,1.70
2022-09-01T14:41:08.390Z,1.70
2022-09-01T14:42:11.831Z,1.30
2022-09-01T14:43:14.400Z,1.20
2022-09-01T14:44:16.423Z,1.40
2022-09-01T14:45:23.528Z,1.20
2022-09-01T14:46:25.609Z,1.05
2022-09-01T14:47:27.944Z,1.27
2022-09-01T14:48:30.071Z,1.52
2022-09-01T14:49:35.940Z,1.45
2022-09-01T14:50:41.325Z,1.10
2022-09-01T14:53:05.161Z,1.10
2022-09-01T14:54:08.154Z,1.10
2022-09-01T14:55:11.122Z,1.10
2022-09-01T14:56:13.573Z,0.82
2022-09-01T14:57:36.898Z,1.40
2022-09-01T14:58:37.952Z,1.08
2022-09-01T14:59:41.497Z,1.30
2022-09-01T15:00:45.195Z,1.27
2022-09-01T15:01:47.115Z,1.17
2022-09-01T15:02:49.330Z,1.73
2022-09-01T15:03:51.443Z,1.25
2022-09-01T15:04:53.305Z,1.58
2022-09-01T15:05:55.389Z,1.55
2022-09-01T15:06:57.230Z,1.08
2022-09-01T15:07:59.287Z,1.00
2022-09-01T15:09:02.328Z,1.10
2022-09-01T15:10:05.721Z,1.30
2022-09-01T15:11:12.498Z,1.50
2022-09-01T15:12:14.421Z,1.53
2022-09-01T15:13:16.490Z,1.10
2022-09-01T15:14:18.480Z,1.38
2022-09-01T15:15:20.776Z,1.88
2022-09-01T15:16:28.462Z,1.20
2022-09-01T15:17:30.359Z,1.20
2022-09-01T15:18:32.452Z,1.15
2022-09-01T15:19:35.123Z,0.88
2022-09-01T15:20:48.667Z,1.15
2022-09-01T15:21:50.604Z,1.20
2022-09-01T15:22:52.548Z,1.00
2022-09-01T15:23:55.096Z,1.13
2022-09-01T15:24:56.946Z,1.25
2022-09-01T15:25:58.763Z,1.10
2022-09-01T15:27:01.055Z,1.33
2022-09-01T15:28:03.289Z,1.20
2022-09-01T15:29:05.614Z,1.10
2022-09-01T15:30:14.471Z,1.17
2022-09-01T15:31:18.345Z,1.30
2022-09-01T15:32:28.009Z,1.63
2022-09-01T15:33:30.354Z,1.10
2022-09-01T15:34:32.116Z,1.23